createdAt,value
2017-07-03T00:00:04.428Z,67.00
2017-07-03T00:02:31.263Z,67.20
2017-07-03T00:04:58.179Z,67.30
2017-07-03T00:07:24.991Z,67.30
2017-07-03T00:09:51.823Z,67.40
2017-07-03T00:12:18.714Z,67.40
2017-07-03T00:14:45.539Z,67.70
2017-07-03T00:17:13.090Z,67.60
2017-07-03T00:19:39.979Z,67.50
2017-07-03T00:22:06.946Z,67.70
2017-07-03T00:24:33.771Z,67.90
2017-07-03T00:27:00.604Z,67.90
2017-07-03T00:29:27.488Z,68.00
2017-07-03T00:31:54.327Z,67.80
2017-07-03T00:34:21.153Z,68.00
2017-07-03T00:36:48.048Z,68.10
2017-07-03T00:39:15.636Z,67.90
2017-07-03T00:41:42.476Z,68.30
2017-07-03T00:44:09.392Z,68.20
2017-07-03T00:46:36.212Z,68.00
2017-07-03T00:49:03.030Z,68.10
2017-07-03T00:51:29.918Z,68.30
2017-07-03T00:53:56.753Z,68.50
2017-07-03T00:56:23.661Z,68.50
2017-07-03T00:58:50.478Z,68.50
2017-07-03T01:01:18.111Z,68.40
2017-07-03T01:03:45.002Z,68.20
2017-07-03T01:06:11.904Z,68.50
2017-07-03T01:08:38.746Z,68.40
2017-07-03T01:11:05.620Z,68.70
2017-07-03T01:13:32.462Z,68.80
2017-07-03T01:16:00.102Z,69.00
2017-07-03T01:18:27.007Z,68.90
2017-07-03T01:20:53.833Z,69.00
2017-07-03T01:23:20.658Z,69.20
2017-07-03T01:25:48.295Z,69.20
2017-07-03T01:28:15.202Z,69.20
2017-07-03T01:30:42.024Z,69.30
2017-07-03T01:33:08.854Z,69.10
2017-07-03T01:35:36.491Z,68.70
2017-07-03T01:38:03.334Z,68.70
2017-07-03T01:40:30.155Z,68.70
2017-07-03T01:42:57.054Z,68.90
2017-07-03T01:45:23.876Z,69.00
2017-07-03T01:47:51.542Z,68.80
2017-07-03T01:50:19.095Z,69.00
2017-07-03T01:52:45.932Z,69.00
2017-07-03T01:55:12.839Z,69.20
2017-07-03T01:57:39.760Z,69.30
2017-07-03T02:00:06.581Z,69.00
2017-07-03T02:02:33.473Z,69.10
2017-07-03T02:05:00.287Z,69.20
2017-07-03T02:07:27.103Z,69.20
2017-07-03T02:09:54.002Z,69.50
2017-07-03T02:12:20.981Z,69.90
2017-07-03T02:14:47.799Z,69.70
2017-07-03T02:17:14.635Z,69.80
2017-07-03T02:19:41.564Z,70.10
2017-07-03T02:22:08.401Z,70.00
2017-07-03T02:24:35.225Z,70.10
2017-07-03T02:27:02.091Z,70.20
2017-07-03T02:29:28.912Z,70.10
2017-07-03T02:31:56.548Z,70.20
2017-07-03T02:34:23.449Z,70.10
2017-07-03T02:36:50.287Z,70.00
2017-07-03T02:39:17.112Z,69.50
2017-07-03T02:41:56.788Z,70.20
2017-07-03T02:44:26.340Z,70.40
2017-07-03T02:46:53.308Z,70.40
2017-07-03T02:49:20.869Z,69.60
2017-07-03T02:51:48.441Z,69.60
2017-07-03T02:54:16.082Z,69.80
2017-07-03T02:56:42.922Z,69.80
2017-07-03T02:59:09.810Z,70.00
2017-07-03T03:01:36.714Z,70.00
2017-07-03T03:04:03.522Z,69.50
2017-07-03T03:06:30.334Z,69.30
2017-07-03T03:08:57.213Z,69.30
2017-07-03T03:11:24.034Z,69.60
2017-07-03T03:13:50.866Z,70.20
2017-07-03T03:16:17.746Z,70.00
2017-07-03T03:18:44.557Z,70.00
2017-07-03T03:21:11.487Z,70.10
2017-07-03T03:23:39.062Z,69.80
2017-07-03T03:26:05.879Z,69.80
2017-07-03T03:28:33.510Z,70.00
2017-07-03T03:31:00.343Z,70.00
2017-07-03T03:33:27.178Z,69.90
2017-07-03T03:35:54.127Z,70.00
2017-07-03T03:38:20.958Z,70.00
2017-07-03T03:40:47.860Z,70.00
2017-07-03T03:43:15.442Z,70.80
2017-07-03T03:45:43.004Z,70.30
2017-07-03T03:48:09.915Z,70.30
2017-07-03T03:50:36.751Z,70.50
2017-07-03T03:53:03.592Z,70.70
2017-07-03T03:55:30.485Z,71.00
2017-07-03T03:57:57.309Z,71.10
2017-07-03T04:00:24.888Z,71.30
2017-07-03T04:02:51.771Z,71.20
2017-07-03T04:05:18.674Z,70.90
2017-07-03T04:07:45.575Z,70.90
2017-07-03T04:10:12.411Z,70.80
2017-07-03T04:12:39.238Z,70.60
2017-07-03T04:15:06.150Z,70.30
2017-07-03T04:17:33.743Z,70.00
2017-07-03T04:20:00.570Z,69.90
2017-07-03T04:22:27.481Z,69.80
2017-07-03T04:24:54.300Z,69.70
2017-07-03T04:27:23.548Z,69.50
2017-07-03T04:29:50.438Z,69.80
2017-07-03T04:32:17.250Z,70.00
2017-07-03T04:34:44.155Z,69.80
2017-07-03T04:37:10.984Z,69.70
2017-07-03T04:39:37.879Z,69.20
2017-07-03T04:42:04.739Z,68.30
2017-07-03T04:44:31.555Z,67.00
2017-07-03T04:46:59.175Z,64.50
2017-07-03T04:49:25.993Z,64.40
2017-07-03T04:51:52.891Z,63.40
2017-07-03T04:54:20.431Z,61.20
2017-07-03T04:56:47.243Z,61.20
2017-07-03T04:59:14.154Z,59.70
2017-07-03T05:01:41.789Z,53.60
2017-07-03T05:04:08.606Z,53.50
2017-07-03T05:06:35.523Z,54.70
2017-07-03T05:09:02.424Z,56.60
2017-07-03T05:11:29.323Z,57.90
2017-07-03T05:13:56.147Z,59.00
2017-07-03T05:16:23.044Z,56.50
2017-07-03T05:18:49.860Z,55.50
2017-07-03T05:21:16.693Z,55.50
2017-07-03T05:23:43.596Z,53.40
2017-07-03T05:26:10.435Z,51.30
2017-07-03T05:28:37.322Z,48.30
2017-07-03T05:31:04.203Z,46.60
2017-07-03T05:33:31.126Z,44.40
2017-07-03T05:35:57.946Z,44.30
2017-07-03T05:38:24.786Z,46.90
2017-07-03T05:40:52.565Z,50.50
2017-07-03T05:43:38.195Z,50.40
2017-07-03T05:46:05.083Z,52.60
2017-07-03T05:48:32.651Z,53.70
2017-07-03T05:50:59.534Z,53.60
2017-07-03T05:53:26.375Z,54.30
2017-07-03T05:55:53.283Z,54.10
2017-07-03T05:58:20.195Z,54.50
2017-07-03T06:00:47.092Z,54.50
2017-07-03T06:03:14.011Z,55.00
2017-07-03T06:05:40.844Z,54.60
2017-07-03T06:08:08.414Z,54.70
2017-07-03T06:10:36.064Z,54.50
2017-07-03T06:13:03.636Z,54.80
2017-07-03T06:15:31.206Z,54.90
2017-07-03T06:17:58.823Z,54.50
2017-07-03T06:20:25.720Z,54.50
2017-07-03T06:22:52.646Z,54.70
2017-07-03T06:25:20.294Z,55.00
2017-07-03T06:27:47.130Z,54.50
2017-07-03T06:30:14.011Z,54.50
2017-07-03T06:32:40.909Z,55.00
2017-07-03T06:35:07.797Z,56.10
2017-07-03T06:37:35.416Z,56.50
2017-07-03T06:40:02.311Z,56.40
2017-07-03T06:42:29.187Z,55.20
2017-07-03T06:44:56.028Z,55.60
2017-07-03T06:47:22.934Z,53.80
2017-07-03T06:49:49.744Z,53.60
2017-07-03T06:52:16.573Z,54.30
2017-07-03T06:54:43.472Z,50.80
2017-07-03T06:57:11.158Z,49.40
2017-07-03T06:59:38.047Z,49.40
2017-07-03T07:02:04.871Z,49.20
2017-07-03T07:04:31.806Z,47.50
2017-07-03T07:06:58.655Z,47.90
2017-07-03T07:09:25.581Z,46.40
2017-07-03T07:11:52.691Z,46.00
2017-07-03T07:14:21.743Z,46.30
2017-07-03T07:16:52.417Z,46.30
2017-07-03T07:19:34.820Z,46.50
2017-07-03T07:22:02.785Z,45.90
2017-07-03T07:24:29.634Z,46.50
2017-07-03T07:26:56.463Z,46.20
2017-07-03T07:29:23.376Z,45.60
2017-07-03T07:31:50.219Z,45.90
2017-07-03T07:34:17.140Z,46.90
2017-07-03T07:36:43.979Z,48.30
2017-07-03T07:39:11.558Z,47.80
2017-07-03T07:41:38.446Z,47.80
2017-07-03T07:44:05.283Z,47.30
2017-07-03T07:46:32.182Z,47.70
2017-07-03T07:48:59.072Z,47.40
2017-07-03T07:51:25.968Z,47.60
2017-07-03T07:53:53.604Z,47.80
2017-07-03T07:56:20.514Z,47.80
2017-07-03T07:58:47.351Z,48.40
2017-07-03T08:01:15.092Z,48.70
2017-07-03T08:03:41.998Z,49.00
2017-07-03T08:06:08.824Z,49.10
2017-07-03T08:08:35.656Z,49.10
2017-07-03T08:11:02.559Z,50.10
2017-07-03T08:13:29.462Z,50.30
2017-07-03T08:15:56.301Z,50.90
2017-07-03T08:18:23.180Z,51.10
2017-07-03T08:20:51.216Z,50.60
2017-07-03T08:23:18.128Z,50.60
2017-07-03T08:25:44.968Z,50.70
2017-07-03T08:28:11.844Z,49.30
2017-07-03T08:30:38.726Z,49.70
2017-07-03T08:33:05.634Z,49.80
2017-07-03T08:35:32.478Z,48.30
2017-07-03T08:37:59.355Z,47.20
2017-07-03T08:40:26.434Z,47.40
2017-07-03T08:42:53.352Z,45.40
2017-07-03T08:45:20.219Z,45.70
2017-07-03T08:47:47.779Z,45.00
2017-07-03T08:50:15.438Z,45.60
2017-07-03T08:52:42.275Z,45.50
2017-07-03T08:55:09.867Z,44.60
2017-07-03T08:57:36.795Z,44.50
2017-07-03T09:00:03.730Z,45.60
2017-07-03T09:02:31.397Z,47.10
2017-07-03T09:04:58.980Z,47.40
2017-07-03T09:07:25.890Z,47.40
2017-07-03T09:09:52.744Z,48.20
2017-07-03T09:12:20.406Z,45.70
2017-07-03T09:14:48.055Z,44.50
2017-07-03T09:17:14.860Z,43.80
2017-07-03T09:19:42.393Z,42.80
2017-07-03T09:22:09.232Z,43.60
2017-07-03T09:24:36.890Z,43.00
2017-07-03T09:27:04.487Z,44.20
2017-07-03T09:29:31.390Z,44.10
2017-07-03T09:31:58.968Z,43.20
2017-07-03T09:34:25.889Z,43.20
2017-07-03T09:36:53.446Z,44.00
2017-07-03T09:39:20.369Z,44.00
2017-07-03T09:41:47.212Z,43.80
2017-07-03T09:44:14.121Z,43.30
2017-07-03T09:46:40.950Z,42.50
2017-07-03T09:49:07.915Z,42.60
2017-07-03T09:51:34.749Z,41.80
2017-07-03T09:54:01.589Z,39.10
2017-07-03T09:56:28.497Z,39.80
2017-07-03T09:58:55.330Z,39.70
2017-07-03T10:01:22.251Z,39.60
2017-07-03T10:03:49.163Z,37.90
2017-07-03T10:06:16.110Z,37.90
2017-07-03T10:08:42.951Z,36.70
2017-07-03T10:11:09.850Z,36.20
2017-07-03T10:13:36.665Z,34.80
2017-07-03T10:16:03.627Z,36.20
2017-07-03T10:18:30.478Z,37.60
2017-07-03T10:20:57.424Z,38.80
2017-07-03T10:23:24.325Z,38.80
2017-07-03T10:25:51.347Z,38.30
2017-07-03T10:28:18.271Z,38.00
2017-07-03T10:30:45.116Z,38.50
2017-07-03T10:33:11.978Z,38.40
2017-07-03T10:35:38.916Z,36.80
2017-07-03T10:38:05.760Z,37.00
2017-07-03T10:40:32.611Z,35.10
2017-07-03T10:42:59.527Z,36.70
2017-07-03T10:45:26.359Z,37.80
2017-07-03T10:47:53.208Z,38.80
2017-07-03T10:50:20.114Z,37.20
2017-07-03T10:52:47.755Z,35.80
2017-07-03T10:55:14.739Z,35.90
2017-07-03T10:57:41.557Z,35.70
2017-07-03T11:00:09.156Z,37.50
2017-07-03T11:02:36.158Z,37.30
2017-07-03T11:05:02.998Z,34.70
2017-07-03T11:07:29.851Z,33.60
2017-07-03T11:09:57.570Z,31.90
2017-07-03T11:12:24.404Z,31.80
2017-07-03T11:14:51.316Z,32.90
2017-07-03T11:17:18.265Z,32.20
2017-07-03T11:19:46.818Z,33.30
2017-07-03T11:22:16.878Z,33.30
2017-07-03T11:24:45.116Z,34.90
2017-07-03T11:27:12.466Z,35.00
2017-07-03T11:29:50.808Z,35.20
2017-07-03T11:32:18.344Z,36.10
2017-07-03T11:43:33.975Z,36.40
2017-07-03T11:46:13.506Z,36.80
2017-07-03T11:48:56.014Z,35.10
2017-07-03T11:51:41.810Z,34.20
2017-07-03T11:54:27.545Z,34.20
2017-07-03T12:02:50.990Z,32.70
2017-07-03T12:14:05.824Z,29.90
2017-07-03T12:25:24.494Z,29.00
2017-07-03T12:28:11.535Z,28.20
2017-07-03T12:31:07.492Z,28.20
2017-07-03T12:33:52.865Z,28.20
2017-07-03T12:39:24.001Z,28.60
2017-07-03T12:42:15.069Z,28.40
2017-07-03T12:45:02.960Z,28.30
2017-07-03T12:47:51.982Z,28.20
2017-07-03T13:02:06.562Z,29.80
2017-07-03T13:07:44.650Z,31.30
2017-07-03T13:15:59.100Z,29.60
2017-07-03T13:18:33.093Z,29.30
2017-07-03T13:21:02.249Z,29.30
2017-07-03T13:23:29.183Z,29.20
2017-07-03T13:25:56.336Z,29.10
2017-07-03T13:28:25.590Z,28.30
2017-07-03T13:30:54.593Z,28.50
2017-07-03T13:33:28.824Z,28.70
2017-07-03T13:36:02.102Z,27.60
2017-07-03T13:38:29.466Z,27.60
2017-07-03T13:40:56.286Z,26.90
2017-07-03T13:43:23.303Z,27.10
2017-07-03T13:45:50.185Z,27.90
2017-07-03T13:48:17.019Z,27.60
2017-07-03T13:50:44.679Z,28.30
2017-07-03T13:53:11.605Z,28.30
2017-07-03T13:55:38.459Z,28.10
2017-07-03T13:58:06.039Z,27.70
2017-07-03T14:00:32.946Z,27.60
2017-07-03T14:02:59.800Z,27.20
2017-07-03T14:05:27.467Z,28.40
2017-07-03T14:07:55.119Z,28.70
2017-07-03T14:10:21.963Z,28.70
2017-07-03T14:12:48.869Z,28.40
2017-07-03T14:15:15.699Z,28.60
2017-07-03T14:17:42.595Z,29.00
2017-07-03T14:20:09.432Z,29.10
2017-07-03T14:22:36.398Z,28.30
2017-07-03T14:25:03.959Z,29.00
2017-07-03T14:27:32.126Z,29.00
2017-07-03T14:29:59.091Z,29.70
2017-07-03T14:32:26.738Z,29.70
2017-07-03T14:34:53.575Z,29.70
2017-07-03T14:37:20.509Z,29.60
2017-07-03T14:39:47.365Z,29.20
2017-07-03T14:42:14.211Z,29.30
2017-07-03T14:44:41.111Z,29.60
2017-07-03T14:47:07.951Z,29.20
2017-07-03T14:49:34.843Z,29.40
2017-07-03T14:52:01.721Z,28.80
2017-07-03T14:54:28.610Z,29.10
2017-07-03T14:56:55.504Z,29.70
2017-07-03T14:59:23.086Z,30.20
2017-07-03T15:01:50.035Z,30.10
2017-07-03T15:04:16.879Z,30.80
2017-07-03T15:06:44.488Z,30.50
2017-07-03T15:09:11.375Z,29.30
2017-07-03T15:11:38.223Z,28.70
2017-07-03T15:14:05.136Z,27.90
2017-07-03T15:16:32.740Z,28.50
2017-07-03T15:18:59.636Z,28.50
2017-07-03T15:21:26.476Z,27.80
2017-07-03T15:23:53.454Z,28.20
2017-07-03T15:26:20.357Z,28.40
2017-07-03T15:28:47.243Z,28.30
2017-07-03T15:31:14.078Z,28.70
2017-07-03T15:33:41.711Z,28.80
2017-07-03T15:36:08.603Z,28.80
2017-07-03T15:38:35.463Z,28.10
2017-07-03T15:41:02.361Z,28.30
2017-07-03T15:43:29.263Z,28.20
2017-07-03T15:45:56.091Z,27.80
2017-07-03T15:48:23.004Z,28.30
2017-07-03T15:50:50.571Z,29.40
2017-07-03T15:53:18.181Z,28.30
2017-07-03T15:55:45.063Z,28.30
2017-07-03T15:58:12.743Z,29.10
2017-07-03T16:00:39.582Z,29.00
2017-07-03T16:03:06.419Z,28.80
2017-07-03T16:05:34.051Z,28.50
2017-07-03T16:08:00.875Z,28.50
2017-07-03T16:10:27.767Z,28.50
2017-07-03T16:12:55.405Z,29.40
2017-07-03T16:15:22.250Z,28.80
2017-07-03T16:17:49.059Z,29.20
2017-07-03T16:20:15.956Z,28.70
2017-07-03T16:22:42.910Z,28.60
2017-07-03T16:25:10.566Z,29.30
2017-07-03T16:27:37.530Z,29.30
2017-07-03T16:30:05.179Z,30.30
2017-07-03T16:32:32.809Z,30.50
2017-07-03T16:34:59.716Z,29.80
2017-07-03T16:37:26.617Z,30.20
2017-07-03T16:39:53.447Z,30.70
2017-07-03T16:42:20.340Z,30.60
2017-07-03T16:44:47.178Z,30.60
2017-07-03T16:47:14.066Z,30.90
2017-07-03T16:49:41.379Z,30.40
2017-07-03T16:52:09.032Z,30.30
2017-07-03T16:54:36.670Z,30.40
2017-07-03T16:57:03.583Z,30.30
2017-07-03T16:59:30.505Z,31.10
2017-07-03T17:01:57.367Z,31.10
2017-07-03T17:04:24.285Z,31.50
2017-07-03T17:06:51.859Z,31.90
2017-07-03T17:09:18.768Z,31.90
2017-07-03T17:11:45.578Z,32.40
2017-07-03T17:14:12.487Z,32.50
2017-07-03T17:16:39.411Z,32.80
2017-07-03T17:19:06.971Z,33.10
2017-07-03T17:21:33.908Z,33.10
2017-07-03T17:24:00.747Z,33.10
2017-07-03T17:26:27.729Z,33.10
2017-07-03T17:28:54.569Z,33.30
2017-07-03T17:31:22.196Z,33.60
2017-07-03T17:33:49.032Z,33.60
2017-07-03T17:36:15.883Z,33.40
2017-07-03T17:38:42.793Z,33.30
2017-07-03T17:41:09.648Z,33.10
2017-07-03T17:43:36.559Z,33.60
2017-07-03T17:46:03.483Z,33.30
2017-07-03T17:48:31.039Z,34.50
2017-07-03T17:50:57.938Z,34.10
2017-07-03T17:53:24.896Z,34.10
2017-07-03T17:55:51.724Z,34.20
2017-07-03T17:58:18.614Z,34.10
2017-07-03T18:00:45.449Z,33.60
2017-07-03T18:03:12.402Z,33.80
2017-07-03T18:05:39.230Z,34.10
2017-07-03T18:08:06.114Z,33.90
2017-07-03T18:10:33.667Z,34.20
2017-07-03T18:13:01.289Z,34.50
2017-07-03T18:15:28.298Z,34.00
2017-07-03T18:17:55.122Z,33.20
2017-07-03T18:20:22.765Z,32.30
2017-07-03T18:22:49.608Z,32.30
2017-07-03T18:25:16.588Z,32.80
2017-07-03T18:27:44.156Z,32.80
2017-07-03T18:30:11.070Z,32.80
2017-07-03T18:32:38.036Z,32.70
2017-07-03T18:35:05.662Z,32.80
2017-07-03T18:37:32.555Z,32.80
2017-07-03T18:39:59.455Z,33.00
2017-07-03T18:42:26.302Z,33.20
2017-07-03T18:44:53.207Z,33.20
2017-07-03T18:47:20.116Z,33.60
2017-07-03T18:49:47.759Z,33.10
2017-07-03T18:52:14.687Z,33.10
2017-07-03T18:54:41.592Z,33.30
2017-07-03T18:57:08.414Z,33.60
2017-07-03T18:59:35.977Z,33.70
2017-07-03T19:02:02.925Z,33.70
2017-07-03T19:04:30.511Z,33.80
2017-07-03T19:06:57.338Z,33.80
2017-07-03T19:09:24.271Z,33.90
2017-07-03T19:11:51.848Z,33.80
2017-07-03T19:14:18.681Z,33.70
2017-07-03T19:16:46.338Z,34.80
2017-07-03T19:19:13.911Z,35.00
2017-07-03T19:21:40.831Z,34.90
2017-07-03T19:24:07.740Z,35.60
2017-07-03T19:26:34.647Z,35.00
2017-07-03T19:29:01.542Z,35.50
2017-07-03T19:31:28.568Z,35.20
2017-07-03T19:33:55.453Z,35.00
2017-07-03T19:36:22.355Z,34.90
2017-07-03T19:38:49.272Z,34.70
2017-07-03T19:41:16.094Z,35.00
2017-07-03T19:43:42.994Z,35.00
2017-07-03T19:46:09.815Z,35.30
2017-07-03T19:48:36.726Z,35.70
2017-07-03T19:51:03.565Z,35.40
2017-07-03T19:53:30.469Z,35.90
2017-07-03T19:55:57.314Z,35.90
2017-07-03T19:58:24.201Z,36.30
2017-07-03T20:00:51.040Z,36.60
2017-07-03T20:03:17.979Z,36.60
2017-07-03T20:05:44.824Z,36.60
2017-07-03T20:08:11.713Z,36.90
2017-07-03T20:10:38.537Z,36.40
2017-07-03T20:13:06.186Z,36.20
2017-07-03T20:15:33.013Z,36.20
2017-07-03T20:17:59.959Z,36.20
2017-07-03T20:20:26.870Z,36.30
2017-07-03T20:22:53.707Z,36.00
2017-07-03T20:25:20.668Z,36.60
2017-07-03T20:27:47.518Z,37.00
2017-07-03T20:30:16.912Z,37.20
2017-07-03T20:32:43.843Z,38.10
2017-07-03T20:35:10.839Z,37.10
2017-07-03T20:37:37.659Z,37.80
2017-07-03T20:40:04.500Z,37.60
2017-07-03T20:42:31.378Z,36.80
2017-07-03T20:44:58.226Z,37.50
2017-07-03T20:47:25.160Z,37.50
2017-07-03T20:49:51.991Z,37.10
2017-07-03T20:52:18.944Z,37.20
2017-07-03T20:54:45.780Z,38.40
2017-07-03T20:57:12.592Z,38.20
2017-07-03T20:59:39.501Z,38.70
2017-07-03T21:02:06.394Z,38.10
2017-07-03T21:04:33.218Z,38.40
2017-07-03T21:07:00.138Z,39.40
2017-07-03T21:09:26.970Z,40.50
2017-07-03T21:11:53.884Z,40.90
2017-07-03T21:14:20.789Z,42.10
2017-07-03T21:16:50.654Z,43.00
2017-07-03T21:19:18.471Z,43.80
2017-07-03T21:21:45.969Z,43.50
2017-07-03T21:24:12.917Z,44.80
2017-07-03T21:26:39.882Z,46.00
2017-07-03T21:29:06.783Z,46.60
2017-07-03T21:31:33.686Z,46.80
2017-07-03T21:34:00.498Z,47.20
2017-07-03T21:36:27.408Z,48.10
2017-07-03T21:38:54.309Z,48.90
2017-07-03T21:41:21.145Z,49.60
2017-07-03T21:43:47.991Z,49.20
2017-07-03T21:46:14.883Z,49.10
2017-07-03T21:48:42.475Z,49.60
2017-07-03T21:51:09.367Z,49.60
2017-07-03T21:53:36.198Z,50.30
2017-07-03T21:56:03.151Z,50.90
2017-07-03T21:58:29.981Z,51.00
2017-07-03T22:00:56.819Z,51.40
2017-07-03T22:03:23.719Z,51.50
2017-07-03T22:05:50.560Z,51.60
2017-07-03T22:08:17.478Z,51.50
2017-07-03T22:10:44.303Z,51.60
2017-07-03T22:13:11.252Z,51.70
2017-07-03T22:15:38.089Z,51.90
2017-07-03T22:18:06.490Z,52.30
2017-07-03T22:20:34.515Z,52.00
2017-07-03T22:23:03.999Z,51.10
2017-07-03T22:25:35.208Z,51.00
2017-07-03T22:28:05.396Z,51.70
2017-07-03T22:30:34.749Z,51.60
2017-07-03T22:33:04.159Z,51.60
2017-07-03T22:35:34.367Z,51.30
2017-07-03T22:38:04.621Z,51.70
2017-07-03T22:40:34.137Z,52.60
2017-07-03T22:43:02.900Z,51.90
2017-07-03T22:45:31.291Z,52.20
2017-07-03T22:48:00.813Z,52.20
2017-07-03T22:50:28.608Z,52.20
2017-07-03T22:52:56.712Z,52.40
2017-07-03T22:55:28.782Z,52.40
2017-07-03T22:57:58.301Z,52.00
2017-07-03T23:00:28.425Z,52.00
2017-07-03T23:02:56.988Z,52.10
2017-07-03T23:05:25.599Z,52.30
2017-07-03T23:07:54.065Z,51.80
2017-07-03T23:10:22.868Z,51.80
2017-07-03T23:12:51.457Z,51.80
2017-07-03T23:15:20.145Z,52.20
2017-07-03T23:17:49.349Z,52.60
2017-07-03T23:20:17.728Z,53.30
2017-07-03T23:22:46.489Z,53.40
2017-07-03T23:25:13.399Z,53.30
2017-07-03T23:27:40.289Z,54.20
2017-07-03T23:30:07.919Z,53.30
2017-07-03T23:32:34.731Z,53.30
2017-07-03T23:35:01.629Z,53.00
2017-07-03T23:37:28.451Z,53.40
2017-07-03T23:39:55.352Z,52.80
2017-07-03T23:42:22.194Z,52.50
2017-07-03T23:44:49.029Z,53.20
2017-07-03T23:47:15.915Z,53.70
2017-07-03T23:49:42.714Z,53.20
2017-07-03T23:52:10.344Z,54.30
2017-07-03T23:54:37.211Z,54.30
2017-07-03T23:57:04.841Z,55.00
2017-07-03T23:59:31.703Z,54.70
